Time;durP1;ratioP1;P1;durP2;ratioP2;P2;SDS_P1;SDS_P2;PMS_P1;PMS_P2;Temp;Humidity;BMP_temperature;BMP_pressure;BME280_temperature;BME280_humidity;BME280_pressure;Samples;Min_cycle;Max_cycle;Signal;HPM_P1;HPM_P2
2022/07/20 00:02:00;;;;;;;14.18;5.65;;;28.50;76.40;;;;;;5063503;28;20175;-82
2022/07/20 00:04:26;;;;;;;26.42;7.85;;;28.20;77.50;;;;;;5081074;28;20178;-81
2022/07/20 00:06:51;;;;;;;21.35;7.07;;;28.20;79.20;;;;;;5080295;28;20174;-84
2022/07/20 00:12:01;;;;;;;24.15;7.43;;;27.90;81.30;;;;;;5080497;28;20189;-84
2022/07/20 00:14:28;;;;;;;19.45;8.10;;;27.80;81.90;;;;;;5068278;28;20179;-83
2022/07/20 00:16:54;;;;;;;18.95;8.82;;;27.70;83.00;;;;;;5047115;28;20646;-84
2022/07/20 00:19:20;;;;;;;20.55;8.98;;;27.60;83.70;;;;;;5050913;28;20171;-85
2022/07/20 00:21:46;;;;;;;13.02;8.75;;;27.60;84.20;;;;;;5054796;28;20179;-85
2022/07/20 00:24:11;;;;;;;20.63;11.10;;;27.60;84.50;;;;;;5070815;28;20155;-82
2022/07/20 00:26:37;;;;;;;16.23;12.10;;;27.60;85.90;;;;;;5068738;28;20174;-82
2022/07/20 00:29:03;;;;;;;20.30;11.57;;;27.40;87.10;;;;;;5061983;28;20530;-84
2022/07/20 00:31:28;;;;;;;33.05;13.05;;;27.20;88.30;;;;;;5057891;28;20241;-84
2022/07/20 00:33:54;;;;;;;26.20;13.63;;;27.10;90.10;;;;;;5041978;28;20202;-83
2022/07/20 00:36:20;;;;;;;24.92;15.07;;;26.90;90.70;;;;;;5067129;28;20163;-81
2022/07/20 00:38:46;;;;;;;29.67;14.52;;;26.80;90.70;;;;;;5051799;28;20171;-80
2022/07/20 00:41:13;;;;;;;27.27;15.57;;;26.80;91.20;;;;;;5063167;28;20663;-83
2022/07/20 00:44:05;;;;;;;21.23;15.60;;;26.70;91.90;;;;;;5057152;28;20195;-87
2022/07/20 00:46:37;;;;;;;21.40;18.08;;;26.40;92.70;;;;;;5040987;28;20233;-83
2022/07/20 00:49:10;;;;;;;29.80;17.25;;;26.40;93.30;;;;;;5060350;28;20164;-84
2022/07/20 00:51:41;;;;;;;28.02;16.70;;;26.20;94.10;;;;;;5065189;28;20179;-83
2022/07/20 00:54:11;;;;;;;22.92;18.10;;;26.10;94.60;;;;;;5052817;28;20183;-83
2022/07/20 00:56:38;;;;;;;26.10;18.48;;;25.90;95.50;;;;;;5067507;28;20167;-82
2022/07/20 00:59:08;;;;;;;40.05;19.95;;;26.00;96.20;;;;;;5069845;28;20187;-82
2022/07/20 01:01:35;;;;;;;29.88;19.23;;;25.90;97.70;;;;;;5064519;28;20329;-84
2022/07/20 01:04:02;;;;;;;34.22;18.15;;;25.70;99.50;;;;;;5066811;28;20167;-81
2022/07/20 01:06:27;;;;;;;41.10;19.75;;;25.50;99.90;;;;;;5047366;28;20175;-83
2022/07/20 01:08:53;;;;;;;29.42;19.40;;;25.40;99.90;;;;;;5055541;28;20224;-87
2022/07/20 01:11:19;;;;;;;39.05;19.92;;;25.30;99.90;;;;;;5055138;28;20187;-84
2022/07/20 01:13:45;;;;;;;36.67;19.92;;;25.30;99.90;;;;;;5054868;28;20203;-83
2022/07/20 01:16:11;;;;;;;47.15;20.70;;;25.30;99.90;;;;;;5036996;28;20175;-83
2022/07/20 01:18:36;;;;;;;31.92;20.67;;;25.20;99.90;;;;;;5054869;28;20620;-84
2022/07/20 01:21:03;;;;;;;31.33;19.90;;;25.20;99.90;;;;;;5055371;28;20191;-83
2022/07/20 01:23:29;;;;;;;29.67;18.85;;;25.20;99.90;;;;;;5037287;28;20270;-87
2022/07/20 01:25:56;;;;;;;34.58;20.27;;;25.30;99.90;;;;;;5054932;28;20199;-84
2022/07/20 01:28:22;;;;;;;35.72;20.23;;;25.10;99.90;;;;;;5055248;28;20171;-85
2022/07/20 01:30:48;;;;;;;33.50;19.92;;;25.10;99.90;;;;;;5037041;28;20191;-86
2022/07/20 01:33:14;;;;;;;38.83;20.27;;;25.00;99.90;;;;;;5055042;28;20360;-88
2022/07/20 01:35:39;;;;;;;28.50;19.52;;;25.10;99.90;;;;;;5054814;28;20175;-86
2022/07/20 01:38:05;;;;;;;33.40;19.27;;;25.10;99.90;;;;;;5040105;28;20171;-85
2022/07/20 01:40:31;;;;;;;29.48;19.98;;;25.10;99.90;;;;;;5057057;28;20662;-84
2022/07/20 01:42:56;;;;;;;36.15;19.88;;;25.10;99.90;;;;;;5056150;28;20174;-83
2022/07/20 01:45:22;;;;;;;34.67;19.25;;;25.10;99.90;;;;;;5054554;28;20643;-83
2022/07/20 01:47:48;;;;;;;45.20;20.58;;;25.20;99.90;;;;;;5054134;28;20530;-84
2022/07/20 01:50:13;;;;;;;33.40;19.15;;;25.20;99.90;;;;;;5053613;28;20536;-84
2022/07/20 01:52:39;;;;;;;35.05;20.15;;;25.10;99.90;;;;;;5053813;28;20203;-84
2022/07/20 01:55:05;;;;;;;37.38;20.63;;;25.10;99.90;;;;;;5053014;28;20167;-84
2022/07/20 01:57:31;;;;;;;28.48;21.70;;;25.10;99.90;;;;;;5053929;28;20183;-87
2022/07/20 01:59:57;;;;;;;33.88;21.63;;;25.00;99.90;;;;;;5053973;28;20539;-83
2022/07/20 02:02:22;;;;;;;34.05;21.40;;;24.90;99.90;;;;;;5053663;28;20173;-86
2022/07/20 02:04:48;;;;;;;35.38;20.10;;;24.80;99.90;;;;;;5036665;28;20167;-85
2022/07/20 02:07:13;;;;;;;43.80;20.30;;;24.60;99.90;;;;;;5035635;28;20163;-85
2022/07/20 02:09:39;;;;;;;37.60;22.15;;;24.60;99.90;;;;;;5035943;28;20179;-87
2022/07/20 02:12:05;;;;;;;42.67;21.48;;;24.60;99.90;;;;;;5035658;28;20175;-88
2022/07/20 02:14:31;;;;;;;35.72;21.95;;;24.80;99.90;;;;;;5053556;28;20230;-87
2022/07/20 02:16:56;;;;;;;30.10;21.73;;;24.70;99.90;;;;;;5053469;28;20168;-84
2022/07/20 02:19:22;;;;;;;37.35;22.05;;;24.80;99.90;;;;;;5053828;28;20198;-87
2022/07/20 02:21:47;;;;;;;37.22;20.80;;;24.60;99.90;;;;;;5035491;28;20190;-85
2022/07/20 02:24:18;;;;;;;43.80;22.63;;;24.60;99.90;;;;;;5040815;28;20171;-85
2022/07/20 02:26:44;;;;;;;32.72;22.20;;;24.60;99.90;;;;;;5058303;28;20163;-84
2022/07/20 02:29:09;;;;;;;38.83;22.92;;;24.70;99.90;;;;;;5054075;28;20163;-85
2022/07/20 02:31:35;;;;;;;34.25;22.88;;;24.70;99.90;;;;;;5035536;28;20199;-85
2022/07/20 02:34:01;;;;;;;41.22;22.80;;;24.80;99.90;;;;;;5035495;28;20235;-85
2022/07/20 02:36:26;;;;;;;34.45;21.45;;;24.80;99.90;;;;;;5035602;28;20258;-83
2022/07/20 02:38:52;;;;;;;34.42;22.35;;;24.80;99.90;;;;;;5035445;28;20514;-84
2022/07/20 02:41:17;;;;;;;39.10;22.20;;;24.80;99.90;;;;;;5053064;28;20183;-84
2022/07/20 02:43:43;;;;;;;40.00;23.20;;;24.80;99.90;;;;;;5035653;28;20171;-81
2022/07/20 02:46:09;;;;;;;42.22;22.67;;;24.70;99.90;;;;;;5053628;28;20171;-83
2022/07/20 02:48:35;;;;;;;33.22;20.92;;;24.70;99.90;;;;;;5035713;28;20167;-84
2022/07/20 02:51:01;;;;;;;34.53;22.85;;;24.60;99.90;;;;;;5052939;28;20206;-87
2022/07/20 02:53:26;;;;;;;35.35;21.23;;;24.50;99.90;;;;;;5035365;28;20215;-84
2022/07/20 02:55:52;;;;;;;34.75;21.38;;;24.50;99.90;;;;;;5053478;28;20171;-87
2022/07/20 02:58:18;;;;;;;35.78;22.10;;;24.50;99.90;;;;;;5044323;28;20270;-81
2022/07/20 03:00:43;;;;;;;33.30;21.63;;;24.50;99.90;;;;;;5037711;28;20230;-84
2022/07/20 03:03:09;;;;;;;47.47;20.42;;;24.50;99.90;;;;;;5053201;28;20197;-84
2022/07/20 03:05:35;;;;;;;35.95;21.05;;;24.30;99.90;;;;;;5056344;28;20189;-84
2022/07/20 03:08:01;;;;;;;31.83;21.17;;;24.30;99.90;;;;;;5041870;28;20257;-82
2022/07/20 03:10:27;;;;;;;35.63;21.20;;;24.40;99.90;;;;;;5059490;28;20189;-83
2022/07/20 03:12:53;;;;;;;39.17;21.80;;;24.50;99.90;;;;;;5041727;28;20203;-86
2022/07/20 03:15:19;;;;;;;36.28;21.25;;;24.40;99.90;;;;;;5059545;28;20249;-85
2022/07/20 03:17:49;;;;;;;37.22;20.13;;;24.10;99.90;;;;;;5059235;28;20174;-83
2022/07/20 03:20:20;;;;;;;28.30;20.63;;;24.10;99.90;;;;;;5041414;28;20222;-82
2022/07/20 03:22:45;;;;;;;33.83;20.08;;;24.00;99.90;;;;;;5041400;28;20179;-86
2022/07/20 03:25:11;;;;;;;36.38;20.63;;;24.30;99.90;;;;;;5059497;28;20190;-84
2022/07/20 03:27:37;;;;;;;31.17;18.80;;;24.30;99.90;;;;;;5041529;28;20225;-82
2022/07/20 03:30:05;;;;;;;27.98;20.10;;;24.20;99.90;;;;;;5058993;28;20691;-82
2022/07/20 03:32:31;;;;;;;28.58;20.33;;;24.20;99.90;;;;;;5058948;28;20578;-85
2022/07/20 03:34:57;;;;;;;27.95;20.67;;;24.00;99.90;;;;;;5059115;28;20163;-84
2022/07/20 03:37:23;;;;;;;36.10;18.90;;;24.00;99.90;;;;;;5041118;28;20178;-84
2022/07/20 03:39:48;;;;;;;26.80;19.30;;;24.10;99.90;;;;;;5059205;28;20545;-83
2022/07/20 03:42:14;;;;;;;31.63;19.45;;;24.00;99.90;;;;;;5058976;28;20167;-82
2022/07/20 03:44:40;;;;;;;25.52;18.17;;;24.10;99.90;;;;;;5059267;28;20182;-84
2022/07/20 03:47:05;;;;;;;34.33;18.25;;;24.00;99.90;;;;;;5041105;28;20624;-81
2022/07/20 03:49:31;;;;;;;33.65;18.83;;;24.10;99.90;;;;;;5059245;28;20171;-81
2022/07/20 03:51:57;;;;;;;32.70;18.73;;;24.00;99.90;;;;;;5059077;28;20167;-87
2022/07/20 03:54:22;;;;;;;26.27;17.73;;;24.00;99.90;;;;;;5040831;28;20669;-83
2022/07/20 03:56:48;;;;;;;33.40;18.73;;;23.90;99.90;;;;;;5041137;28;20159;-85
2022/07/20 03:59:14;;;;;;;23.75;17.90;;;24.00;99.90;;;;;;5059180;28;20198;-85
2022/07/20 04:01:40;;;;;;;32.28;18.80;;;24.00;99.90;;;;;;5041482;28;20654;-85
2022/07/20 04:04:06;;;;;;;28.30;19.85;;;24.00;99.90;;;;;;5067105;28;20194;-81
2022/07/20 04:06:32;;;;;;;27.40;18.33;;;23.90;99.90;;;;;;5079119;28;20226;-81
2022/07/20 04:08:58;;;;;;;32.38;18.77;;;23.90;99.90;;;;;;5043402;28;20195;-84
2022/07/20 04:11:23;;;;;;;33.10;19.73;;;23.80;99.90;;;;;;5041400;28;20249;-85
2022/07/20 04:13:49;;;;;;;31.83;20.48;;;23.80;99.90;;;;;;5058900;28;20256;-86
2022/07/20 04:16:15;;;;;;;31.17;20.90;;;23.80;99.90;;;;;;5057449;28;20587;-85
2022/07/20 04:18:40;;;;;;;38.95;20.70;;;23.80;99.90;;;;;;5055774;28;20175;-85
2022/07/20 04:21:06;;;;;;;30.55;19.10;;;23.80;99.90;;;;;;5037647;28;20230;-84
2022/07/20 04:23:32;;;;;;;31.98;19.92;;;23.90;99.90;;;;;;5046090;28;20171;-81
2022/07/20 04:25:58;;;;;;;28.10;18.17;;;24.00;99.90;;;;;;5060413;28;20167;-84
2022/07/20 04:28:24;;;;;;;32.15;19.77;;;23.90;99.90;;;;;;5062687;28;20190;-82
2022/07/20 04:30:50;;;;;;;30.42;20.08;;;23.90;99.90;;;;;;5062260;28;20699;-83
2022/07/20 04:33:15;;;;;;;32.55;20.42;;;24.00;99.90;;;;;;5062426;28;20198;-84
2022/07/20 04:35:41;;;;;;;23.63;17.90;;;24.00;99.90;;;;;;5044235;28;20175;-82
2022/07/20 04:38:13;;;;;;;31.05;18.42;;;24.20;99.90;;;;;;5062330;28;20163;-85
2022/07/20 04:40:39;;;;;;;43.65;18.95;;;24.20;99.90;;;;;;5061466;28;20635;-83
2022/07/20 04:43:05;;;;;;;25.55;18.48;;;24.30;99.90;;;;;;5039723;28;20249;-86
2022/07/20 04:45:31;;;;;;;29.17;20.05;;;24.30;99.90;;;;;;5061743;28;20248;-83
2022/07/20 04:47:56;;;;;;;36.08;19.20;;;24.30;99.90;;;;;;5046849;28;20183;-83
2022/07/20 04:50:22;;;;;;;32.95;18.85;;;24.30;99.90;;;;;;5044701;28;20294;-82
2022/07/20 04:52:48;;;;;;;29.02;18.42;;;24.30;99.90;;;;;;5063181;28;20210;-83
2022/07/20 04:55:13;;;;;;;35.28;20.00;;;24.30;99.90;;;;;;5061591;28;20167;-86
2022/07/20 04:57:39;;;;;;;31.40;19.33;;;24.40;99.90;;;;;;5062019;28;20167;-82
2022/07/20 05:00:06;;;;;;;40.83;20.50;;;24.40;99.90;;;;;;5058943;28;20190;-83
2022/07/20 05:02:32;;;;;;;26.75;19.17;;;24.40;99.90;;;;;;5046716;28;20194;-82
2022/07/20 05:04:57;;;;;;;33.38;18.95;;;24.40;99.90;;;;;;5059384;28;20163;-84
2022/07/20 05:07:23;;;;;;;28.45;19.17;;;24.50;99.90;;;;;;5060304;28;20231;-84
2022/07/20 05:09:49;;;;;;;27.08;17.50;;;24.70;99.90;;;;;;5056857;28;20179;-83
2022/07/20 05:12:15;;;;;;;31.05;18.20;;;24.70;99.90;;;;;;5058315;28;20171;-84
2022/07/20 05:14:41;;;;;;;28.80;19.42;;;24.70;99.90;;;;;;5058586;28;20183;-85
2022/07/20 05:17:06;;;;;;;32.22;18.13;;;24.70;99.90;;;;;;5057564;28;20619;-83
2022/07/20 05:19:32;;;;;;;29.20;17.88;;;24.90;99.90;;;;;;5037643;28;20175;-84
2022/07/20 05:21:57;;;;;;;35.53;18.02;;;25.10;99.90;;;;;;5069239;22;20717;-79
2022/07/20 05:24:24;;;;;;;46.60;19.33;;;25.10;99.90;;;;;;5054893;28;20160;-80
2022/07/20 05:26:50;;;;;;;25.83;17.27;;;25.10;99.90;;;;;;5054658;28;20171;-80
2022/07/20 05:29:16;;;;;;;24.27;17.08;;;24.80;99.90;;;;;;5054261;28;20167;-79
2022/07/20 05:31:41;;;;;;;24.05;16.25;;;24.80;99.90;;;;;;5054521;28;20178;-79
2022/07/20 05:34:07;;;;;;;25.90;17.58;;;24.70;99.90;;;;;;5054609;28;20285;-81
2022/07/20 05:36:33;;;;;;;25.92;17.50;;;24.70;99.90;;;;;;5054137;28;20257;-80
2022/07/20 05:38:58;;;;;;;23.38;15.27;;;24.50;99.90;;;;;;5054096;28;20163;-78
2022/07/20 05:41:24;;;;;;;22.30;13.98;;;24.30;99.90;;;;;;5036546;28;20191;-79
2022/07/20 05:43:49;;;;;;;34.05;15.75;;;24.30;99.90;;;;;;5054156;28;20619;-79
2022/07/20 05:46:15;;;;;;;22.30;13.38;;;24.20;99.90;;;;;;5053738;28;20171;-79
2022/07/20 05:48:41;;;;;;;23.10;13.30;;;24.10;99.90;;;;;;5054368;28;20174;-79
2022/07/20 05:51:06;;;;;;;26.80;13.45;;;24.20;99.90;;;;;;5035862;28;20199;-79
2022/07/20 05:53:32;;;;;;;15.95;12.90;;;24.20;99.90;;;;;;5053555;28;20199;-79
2022/07/20 05:55:58;;;;;;;19.10;12.88;;;24.30;99.90;;;;;;5054409;28;20160;-79
2022/07/20 05:58:24;;;;;;;17.02;12.95;;;24.30;99.90;;;;;;5054153;28;20174;-79
2022/07/20 06:00:49;;;;;;;28.38;13.73;;;24.50;99.90;;;;;;5036160;28;20647;-85
2022/07/20 06:03:15;;;;;;;17.98;13.40;;;24.80;99.90;;;;;;5054425;28;20627;-80
2022/07/20 06:05:41;;;;;;;20.13;13.27;;;25.10;99.90;;;;;;5054510;28;20167;-89
2022/07/20 06:08:06;;;;;;;19.25;11.85;;;25.20;99.90;;;;;;5055710;28;20186;-80
2022/07/20 06:10:34;;;;;;;24.05;11.50;;;25.30;99.90;;;;;;5054730;28;20187;-81
2022/07/20 06:13:01;;;;;;;25.52;12.80;;;25.30;99.90;;;;;;5020426;28;20207;-81
2022/07/20 06:15:27;;;;;;;15.15;10.77;;;24.90;99.90;;;;;;5036258;28;20690;-86
2022/07/20 06:17:54;;;;;;;16.73;11.45;;;24.90;99.90;;;;;;5053764;28;20171;-85
2022/07/20 06:20:20;;;;;;;14.32;10.65;;;24.90;99.90;;;;;;5053932;28;20198;-79
2022/07/20 06:22:46;;;;;;;20.13;11.15;;;24.90;99.90;;;;;;5035469;28;20262;-79
2022/07/20 06:25:14;;;;;;;21.35;10.88;;;24.70;99.90;;;;;;5057942;28;20167;-79
2022/07/20 06:27:41;;;;;;;14.05;10.00;;;25.00;99.90;;;;;;5054118;28;20178;-86
2022/07/20 06:30:08;;;;;;;17.02;9.82;;;24.90;99.90;;;;;;5053112;28;20183;-79
2022/07/20 06:32:34;;;;;;;19.15;10.32;;;24.80;99.90;;;;;;5052745;28;20225;-79
2022/07/20 06:35:00;;;;;;;11.07;9.82;;;24.80;99.90;;;;;;5052875;28;20525;-79
2022/07/20 06:37:26;;;;;;;17.10;9.77;;;24.80;99.90;;;;;;5053475;28;20170;-78
2022/07/20 06:39:51;;;;;;;12.23;9.32;;;24.90;99.90;;;;;;5035020;28;20187;-84
2022/07/20 06:42:20;;;;;;;9.57;8.35;;;24.70;99.90;;;;;;5053271;28;20630;-79
2022/07/20 06:44:46;;;;;;;21.77;8.38;;;24.70;99.90;;;;;;5053068;28;20178;-79
2022/07/20 06:47:12;;;;;;;12.63;8.50;;;24.80;99.90;;;;;;5052982;28;20163;-79
2022/07/20 06:49:38;;;;;;;12.25;7.82;;;24.80;99.90;;;;;;5053179;28;20619;-79
2022/07/20 06:52:04;;;;;;;12.48;8.23;;;24.90;99.90;;;;;;5053727;28;20212;-79
2022/07/20 06:54:30;;;;;;;18.52;7.47;;;25.00;99.90;;;;;;5052824;28;20210;-79
2022/07/20 06:56:55;;;;;;;17.25;8.48;;;25.10;99.90;;;;;;5053115;28;20213;-79
2022/07/20 06:59:21;;;;;;;12.07;8.13;;;25.20;99.90;;;;;;5053055;28;20178;-80
2022/07/20 07:01:47;;;;;;;11.10;7.63;;;25.40;99.90;;;;;;5052867;28;20633;-79
2022/07/20 07:04:13;;;;;;;9.45;7.45;;;25.70;99.90;;;;;;5053836;28;20167;-79
2022/07/20 07:06:40;;;;;;;13.80;7.18;;;25.80;99.90;;;;;;5053182;28;20175;-79
2022/07/20 07:09:06;;;;;;;16.83;7.03;;;25.80;99.90;;;;;;5035244;28;20638;-79
2022/07/20 07:11:32;;;;;;;19.58;7.32;;;25.90;99.90;;;;;;5034617;28;20614;-79
2022/07/20 07:13:58;;;;;;;14.32;7.20;;;25.50;99.90;;;;;;5053364;28;20214;-80
2022/07/20 07:16:25;;;;;;;11.30;7.18;;;25.30;99.90;;;;;;5053142;28;20155;-79
2022/07/20 07:18:51;;;;;;;12.40;7.40;;;25.10;99.90;;;;;;5035785;28;20171;-79
2022/07/20 07:21:17;;;;;;;14.85;6.20;;;24.90;99.90;;;;;;5034919;28;20213;-95
2022/07/20 07:23:42;;;;;;;15.38;6.85;;;24.60;99.90;;;;;;5053502;28;20213;-79
2022/07/20 07:26:08;;;;;;;13.90;6.72;;;24.30;99.90;;;;;;5057877;28;20640;-78
2022/07/20 07:28:34;;;;;;;9.13;6.45;;;24.20;99.90;;;;;;5057747;28;20160;-78
2022/07/20 07:30:59;;;;;;;15.82;7.05;;;24.10;99.90;;;;;;5054548;28;20655;-79
2022/07/20 07:33:25;;;;;;;13.35;7.07;;;24.00;99.90;;;;;;5055867;28;20572;-79
2022/07/20 07:35:52;;;;;;;9.68;7.05;;;23.80;99.90;;;;;;5054369;28;20175;-79
2022/07/20 07:38:18;;;;;;;11.85;7.30;;;23.80;99.90;;;;;;5052498;28;20167;-82
2022/07/20 07:40:43;;;;;;;11.32;9.20;;;23.90;99.90;;;;;;5052028;28;20198;-79
2022/07/20 07:43:09;;;;;;;18.85;8.85;;;24.00;99.90;;;;;;5052311;28;20201;-80
2022/07/20 07:45:35;;;;;;;10.77;7.47;;;23.80;99.90;;;;;;5052254;28;20167;-79
2022/07/20 07:48:00;;;;;;;7.90;6.50;;;23.80;99.90;;;;;;5052313;28;20580;-79
2022/07/20 07:50:26;;;;;;;13.07;6.63;;;24.00;99.90;;;;;;5052362;28;20631;-80
2022/07/20 07:52:51;;;;;;;13.02;6.05;;;24.10;99.90;;;;;;5054835;28;20289;-79
2022/07/20 07:55:17;;;;;;;8.63;6.30;;;24.40;99.90;;;;;;5055889;28;20246;-81
2022/07/20 07:57:43;;;;;;;13.32;5.75;;;24.60;99.90;;;;;;5056393;28;20167;-80
2022/07/20 08:00:09;;;;;;;16.95;5.55;;;24.80;99.90;;;;;;5056951;28;20209;-84
2022/07/20 08:02:35;;;;;;;6.95;5.70;;;24.90;99.90;;;;;;5038901;28;20199;-86
2022/07/20 08:05:01;;;;;;;9.10;6.35;;;25.10;99.90;;;;;;5049821;28;20194;-89
2022/07/20 08:07:26;;;;;;;9.27;6.78;;;25.40;99.90;;;;;;5054572;28;20262;-85
2022/07/20 08:09:52;;;;;;;6.68;5.40;;;25.80;99.90;;;;;;5069697;28;20267;-86
2022/07/20 08:12:18;;;;;;;14.80;6.30;;;25.80;99.90;;;;;;5062696;28;20631;-88
2022/07/20 08:14:43;;;;;;;8.68;6.32;;;25.80;99.90;;;;;;5041414;28;20233;-86
2022/07/20 08:17:09;;;;;;;8.05;6.18;;;25.60;99.90;;;;;;5044051;28;20194;-87
2022/07/20 08:19:35;;;;;;;12.57;6.70;;;25.40;99.90;;;;;;5039868;28;20191;-89
2022/07/20 08:24:35;;;;;;;8.93;6.38;;;25.20;99.90;;;;;;5037842;28;20198;-84
2022/07/20 08:27:01;;;;;;;10.93;6.55;;;25.10;99.90;;;;;;5037989;28;20207;-84
2022/07/20 08:29:26;;;;;;;10.82;6.28;;;24.90;99.90;;;;;;5055345;28;20167;-84
2022/07/20 08:31:52;;;;;;;6.80;6.15;;;25.10;99.90;;;;;;5037362;28;20171;-83
2022/07/20 08:34:17;;;;;;;13.05;7.50;;;24.80;99.90;;;;;;5037193;28;20268;-84
2022/07/20 08:36:43;;;;;;;7.97;6.18;;;24.90;99.90;;;;;;5037409;28;20202;-81
2022/07/20 08:39:09;;;;;;;11.90;7.72;;;24.80;99.90;;;;;;5055227;28;20167;-83
2022/07/20 08:41:34;;;;;;;8.02;6.47;;;24.90;99.90;;;;;;5037273;28;20202;-82
2022/07/20 08:44:00;;;;;;;16.98;7.03;;;24.90;99.90;;;;;;5037485;28;20220;-83
2022/07/20 08:46:29;;;;;;;9.07;6.18;;;24.90;99.90;;;;;;5037571;28;20171;-83
2022/07/20 08:48:56;;;;;;;9.52;6.72;;;24.90;99.90;;;;;;5055728;28;20203;-83
2022/07/20 08:51:22;;;;;;;13.40;8.50;;;24.70;99.90;;;;;;5037189;28;20187;-82
2022/07/20 08:53:49;;;;;;;15.80;8.10;;;24.70;99.90;;;;;;5037375;28;20214;-82
2022/07/20 08:56:15;;;;;;;12.52;7.85;;;24.60;99.90;;;;;;5055098;28;20250;-82
2022/07/20 08:58:41;;;;;;;13.63;8.10;;;24.70;99.90;;;;;;5037272;28;20175;-81
2022/07/20 09:01:12;;;;;;;13.75;8.18;;;25.00;99.90;;;;;;5037002;28;20195;-81
2022/07/20 09:03:41;;;;;;;17.42;9.18;;;25.30;99.90;;;;;;5036888;28;20179;-81
2022/07/20 09:06:07;;;;;;;11.05;8.45;;;25.40;99.90;;;;;;5037141;28;20191;-81
2022/07/20 09:08:33;;;;;;;11.35;9.10;;;25.50;99.90;;;;;;5054572;28;20586;-82
2022/07/20 09:11:01;;;;;;;18.75;8.63;;;25.60;99.90;;;;;;5036705;28;20191;-81
2022/07/20 09:13:32;;;;;;;12.38;8.43;;;25.90;99.90;;;;;;5055493;28;20202;-87
2022/07/20 09:15:59;;;;;;;11.60;8.02;;;25.90;99.90;;;;;;5056290;28;20512;-90
2022/07/20 09:18:25;;;;;;;17.08;9.20;;;25.70;99.90;;;;;;5038990;28;20198;-87
2022/07/20 09:20:52;;;;;;;15.05;9.60;;;25.60;99.90;;;;;;5056606;28;20187;-86
2022/07/20 09:23:40;;;;;;;23.55;9.32;;;26.00;99.90;;;;;;5056522;28;20175;-86
2022/07/20 09:26:13;;;;;;;11.38;9.40;;;25.60;99.90;;;;;;5056494;28;20171;-88
2022/07/20 09:29:06;;;;;;;15.40;9.00;;;25.50;99.90;;;;;;5057682;28;20260;-91
2022/07/20 09:31:35;;;;;;;16.45;9.48;;;25.50;99.90;;;;;;5054057;28;20203;-89
2022/07/20 09:34:08;;;;;;;17.75;9.18;;;25.60;99.90;;;;;;5056748;28;20214;-93
2022/07/20 09:36:37;;;;;;;21.98;9.98;;;25.30;99.90;;;;;;5058232;28;20643;-95
2022/07/20 09:39:11;;;;;;;21.75;10.25;;;25.20;99.90;;;;;;5060861;28;20167;-82
2022/07/20 09:41:39;;;;;;;16.08;9.05;;;25.10;99.90;;;;;;5072299;28;20188;-79
2022/07/20 09:44:06;;;;;;;13.80;9.70;;;25.30;99.90;;;;;;5069285;28;20171;-81
2022/07/20 09:46:34;;;;;;;13.38;9.18;;;25.60;99.90;;;;;;5065850;28;20175;-91
2022/07/20 09:49:09;;;;;;;14.63;9.90;;;25.80;99.90;;;;;;5064613;28;20167;-78
2022/07/20 09:51:36;;;;;;;26.08;9.48;;;25.80;99.90;;;;;;5054125;28;20194;-79
2022/07/20 09:54:04;;;;;;;21.48;9.48;;;25.70;99.90;;;;;;5054293;28;20202;-77
2022/07/20 09:56:31;;;;;;;10.65;8.35;;;26.00;99.90;;;;;;5055486;28;20202;-81
2022/07/20 09:59:02;;;;;;;15.90;8.40;;;26.60;99.90;;;;;;5056151;28;20176;-78
2022/07/20 10:01:29;;;;;;;16.25;8.27;;;26.70;99.90;;;;;;5053317;28;20234;-77
2022/07/20 10:03:57;;;;;;;11.55;8.30;;;26.70;99.90;;;;;;5035459;28;20258;-77
2022/07/20 10:06:26;;;;;;;9.90;7.65;;;27.20;99.90;;;;;;5053305;28;20167;-78
2022/07/20 10:08:52;;;;;;;11.30;7.53;;;27.30;99.90;;;;;;5053805;28;20250;-77
2022/07/20 10:11:20;;;;;;;12.57;7.68;;;27.40;99.90;;;;;;5053244;28;20567;-77
2022/07/20 10:13:48;;;;;;;7.47;6.47;;;27.50;99.90;;;;;;5053112;28;20223;-77
2022/07/20 10:16:35;;;;;;;10.68;6.18;;;27.60;99.90;;;;;;5053218;28;20213;-77
2022/07/20 10:19:01;;;;;;;9.90;6.50;;;27.80;99.90;;;;;;5054373;28;20314;-81
2022/07/20 10:21:42;;;;;;;9.80;6.70;;;28.10;99.90;;;;;;5053599;28;20227;-80
2022/07/20 10:24:21;;;;;;;11.80;6.40;;;28.30;99.90;;;;;;5035782;28;20178;-80
2022/07/20 10:26:48;;;;;;;10.73;6.15;;;28.00;99.90;;;;;;5038344;28;20187;-79
2022/07/20 10:29:26;;;;;;;6.60;5.95;;;27.50;99.90;;;;;;5055692;28;20651;-79
2022/07/20 10:31:54;;;;;;;10.70;7.38;;;27.40;99.90;;;;;;5053093;28;20555;-81
2022/07/20 10:34:35;;;;;;;7.97;6.00;;;27.10;99.90;;;;;;5053557;28;20199;-81
2022/07/20 10:37:38;;;;;;;7.97;5.88;;;27.00;99.90;;;;;;5054195;28;20167;-79
2022/07/20 10:40:06;;;;;;;9.50;5.13;;;27.20;99.90;;;;;;5053208;28;20198;-80
2022/07/20 10:42:38;;;;;;;6.57;5.80;;;27.30;99.90;;;;;;5052902;28;20171;-80
2022/07/20 10:45:19;;;;;;;8.05;5.72;;;27.40;99.90;;;;;;5034918;28;20171;-80
2022/07/20 10:47:55;;;;;;;9.93;5.50;;;27.50;99.90;;;;;;5034508;28;20484;-85
2022/07/20 10:50:38;;;;;;;12.65;5.90;;;27.50;99.90;;;;;;5052599;28;20582;-80
2022/07/20 10:53:10;;;;;;;5.25;4.75;;;27.70;99.90;;;;;;5052691;28;20211;-80
2022/07/20 10:55:35;;;;;;;7.93;5.43;;;27.80;99.90;;;;;;5053105;28;20247;-81
2022/07/20 10:58:05;;;;;;;9.90;5.63;;;27.60;99.90;;;;;;5053179;28;20225;-80
2022/07/20 11:00:39;;;;;;;6.05;5.55;;;27.70;99.90;;;;;;5053062;28;20183;-79
2022/07/20 11:03:14;;;;;;;7.72;5.30;;;27.60;99.90;;;;;;5053669;28;20170;-84
2022/07/20 11:05:41;;;;;;;5.72;5.22;;;27.50;99.90;;;;;;5053949;28;20159;-88
2022/07/20 11:08:08;;;;;;;6.78;6.07;;;27.50;99.90;;;;;;5054221;28;20167;-84
2022/07/20 11:10:35;;;;;;;12.23;6.60;;;27.70;99.90;;;;;;5053504;28;20328;-89
2022/07/20 11:13:03;;;;;;;12.20;6.78;;;28.00;99.90;;;;;;5052844;28;20655;-80
2022/07/20 11:15:44;;;;;;;7.15;6.07;;;28.00;99.90;;;;;;5052795;28;20175;-79
2022/07/20 11:18:11;;;;;;;8.77;5.57;;;27.90;99.90;;;;;;5055084;28;20240;-82
2022/07/20 11:21:05;;;;;;;6.50;5.90;;;28.00;99.90;;;;;;5055932;28;20194;-85
2022/07/20 11:23:40;;;;;;;6.05;5.45;;;28.30;99.90;;;;;;5052120;28;20239;-85
2022/07/20 11:26:07;;;;;;;7.78;5.72;;;28.40;99.90;;;;;;5053523;28;20170;-79
2022/07/20 11:28:51;;;;;;;8.57;5.97;;;28.30;99.90;;;;;;5056655;28;20240;-79
2022/07/20 11:31:26;;;;;;;9.82;5.78;;;28.30;99.90;;;;;;5056220;28;20262;-80
2022/07/20 11:33:53;;;;;;;14.23;7.05;;;28.50;99.90;;;;;;5056557;28;20300;-80
2022/07/20 11:36:38;;;;;;;6.55;5.95;;;28.40;99.90;;;;;;5056448;28;20163;-80
2022/07/20 11:39:07;;;;;;;7.15;6.55;;;28.30;99.90;;;;;;5056606;28;20225;-82
2022/07/20 11:41:39;;;;;;;7.25;6.22;;;28.60;99.90;;;;;;5038943;28;20183;-79
2022/07/20 11:44:08;;;;;;;7.30;5.95;;;28.60;99.90;;;;;;5057203;28;20257;-79
2022/07/20 11:46:42;;;;;;;6.60;6.00;;;28.70;99.90;;;;;;5059706;28;20167;-79
2022/07/20 11:49:13;;;;;;;7.45;6.75;;;28.60;99.90;;;;;;5043709;28;20328;-78
2022/07/20 11:51:40;;;;;;;15.10;7.65;;;28.30;99.90;;;;;;5059752;28;20198;-79
2022/07/20 11:54:06;;;;;;;13.15;7.88;;;28.40;99.90;;;;;;5059462;28;20230;-79
2022/07/20 11:56:34;;;;;;;12.05;7.60;;;28.30;99.90;;;;;;5041326;28;20464;-80
2022/07/20 11:59:01;;;;;;;9.48;6.97;;;28.40;99.90;;;;;;5038769;28;20534;-80
2022/07/20 12:01:32;;;;;;;10.05;7.93;;;28.80;99.90;;;;;;5038051;28;20187;-81
2022/07/20 12:04:02;;;;;;;7.95;7.20;;;28.50;99.90;;;;;;5055480;28;20175;-79
2022/07/20 12:06:30;;;;;;;9.77;7.88;;;28.60;99.90;;;;;;5055841;28;20178;-80
2022/07/20 12:09:07;;;;;;;8.52;7.60;;;28.60;99.90;;;;;;5038025;28;20194;-81
2022/07/20 12:11:34;;;;;;;10.68;7.82;;;28.80;99.90;;;;;;5055508;28;20316;-80
2022/07/20 12:14:00;;;;;;;16.80;7.72;;;28.60;99.90;;;;;;5037843;28;20230;-80
2022/07/20 12:16:37;;;;;;;10.32;8.07;;;28.90;99.90;;;;;;5055529;28;20205;-80
2022/07/20 12:19:04;;;;;;;8.73;7.82;;;29.00;99.90;;;;;;5055539;28;20179;-81
2022/07/20 12:21:43;;;;;;;18.45;8.18;;;29.00;99.90;;;;;;5056101;28;20195;-80
2022/07/20 12:24:09;;;;;;;12.23;7.80;;;28.90;99.90;;;;;;5039368;28;20177;-80
2022/07/20 12:26:36;;;;;;;9.30;7.95;;;28.90;99.90;;;;;;5055983;28;20166;-80
2022/07/20 12:29:24;;;;;;;8.85;7.95;;;28.90;99.90;;;;;;5055757;28;20171;-80
2022/07/20 12:32:00;;;;;;;13.82;8.60;;;28.20;99.90;;;;;;5055198;28;20181;-80
2022/07/20 12:34:26;;;;;;;11.88;8.25;;;28.30;99.90;;;;;;5054638;28;20293;-84
2022/07/20 12:36:52;;;;;;;10.63;8.02;;;28.00;99.90;;;;;;5055927;28;20179;-80
2022/07/20 12:39:40;;;;;;;9.88;8.57;;;28.00;99.90;;;;;;5056213;28;20213;-80
2022/07/20 12:42:22;;;;;;;10.73;7.93;;;27.90;99.90;;;;;;5055346;28;20640;-80